Time;durP1;ratioP1;P1;durP2;ratioP2;P2;SDS_P1;SDS_P2;PMS_P1;PMS_P2;Temp;Humidity;BMP_temperature;BMP_pressure;BME280_temperature;BME280_humidity;BME280_pressure;Samples;Min_cycle;Max_cycle;Signal;HPM_P1;HPM_P2
2021/07/23 00:00:52;;;;;;;3.85;2.78;;;15.10;97.40;;;;;;5043795;28;20513;-81
2021/07/23 00:03:19;;;;;;;5.70;3.55;;;15.10;97.50;;;;;;5029126;28;20049;-81
2021/07/23 00:05:46;;;;;;;4.45;3.30;;;15.10;97.50;;;;;;5040610;28;20037;-81
2021/07/23 00:08:12;;;;;;;4.43;3.30;;;15.10;97.60;;;;;;5046162;28;20048;-81
2021/07/23 00:10:39;;;;;;;4.40;3.90;;;15.10;97.70;;;;;;5022719;28;20052;-81
2021/07/23 00:13:06;;;;;;;4.72;3.17;;;15.10;97.80;;;;;;5045965;28;20032;-81
2021/07/23 00:15:32;;;;;;;6.13;4.10;;;15.00;97.80;;;;;;5045452;28;20049;-81
2021/07/23 00:17:59;;;;;;;5.63;4.07;;;15.00;98.00;;;;;;5029362;28;20056;-81
2021/07/23 00:20:25;;;;;;;5.80;3.92;;;14.90;98.20;;;;;;5046204;28;20374;-82
2021/07/23 00:22:51;;;;;;;5.75;4.13;;;14.90;98.50;;;;;;4995858;28;20075;-82
2021/07/23 00:25:18;;;;;;;5.47;3.80;;;14.90;98.60;;;;;;5027729;28;20404;-82
2021/07/23 00:27:44;;;;;;;4.40;3.17;;;14.80;98.70;;;;;;5021458;28;20049;-82
2021/07/23 00:30:11;;;;;;;5.05;3.33;;;14.80;98.70;;;;;;5045228;28;20404;-82
2021/07/23 00:32:40;;;;;;;5.25;4.45;;;14.80;98.80;;;;;;5027599;28;20049;-82
2021/07/23 00:35:09;;;;;;;7.45;3.92;;;14.80;99.00;;;;;;5042329;28;20457;-82
2021/07/23 00:37:35;;;;;;;6.43;4.53;;;14.80;99.20;;;;;;5008945;28;20060;-82
2021/07/23 00:40:03;;;;;;;5.45;3.65;;;14.80;99.20;;;;;;5027839;28;20045;-79
2021/07/23 00:42:42;;;;;;;3.88;3.47;;;14.70;99.20;;;;;;5043951;28;20480;-79
2021/07/23 00:45:10;;;;;;;5.15;3.70;;;14.70;99.30;;;;;;5039754;28;20033;-79
2021/07/23 00:47:38;;;;;;;6.88;4.22;;;14.70;99.30;;;;;;4993879;28;20135;-79
2021/07/23 00:50:06;;;;;;;6.78;4.10;;;14.70;99.40;;;;;;5020986;28;20052;-79
2021/07/23 00:52:33;;;;;;;6.07;3.90;;;14.70;99.50;;;;;;5007764;28;20049;-79
2021/07/23 00:55:01;;;;;;;4.95;3.80;;;14.70;99.60;;;;;;5023851;28;20049;-79
2021/07/23 00:57:29;;;;;;;5.50;4.38;;;14.70;99.70;;;;;;4991810;28;20049;-79
2021/07/23 00:59:58;;;;;;;4.43;4.03;;;14.60;99.80;;;;;;5026637;28;20041;-79
2021/07/23 01:02:25;;;;;;;5.20;4.07;;;14.50;99.90;;;;;;5005398;28;20045;-79
2021/07/23 01:04:52;;;;;;;3.80;3.40;;;14.60;99.90;;;;;;5041023;28;20365;-79
2021/07/23 01:07:19;;;;;;;4.15;3.22;;;14.60;99.90;;;;;;5008698;28;20064;-79
2021/07/23 01:09:47;;;;;;;3.78;3.15;;;14.60;99.90;;;;;;5049689;28;20072;-79
2021/07/23 01:12:37;;;;;;;4.15;3.38;;;14.50;99.90;;;;;;5041314;28;20048;-79
2021/07/23 01:15:04;;;;;;;4.97;4.13;;;14.50;99.90;;;;;;5023777;28;20045;-79
2021/07/23 01:17:31;;;;;;;6.97;4.85;;;14.50;99.90;;;;;;5024200;28;20069;-79
2021/07/23 01:20:06;;;;;;;5.20;4.70;;;14.50;99.90;;;;;;5042040;28;20384;-82
2021/07/23 01:22:34;;;;;;;5.53;4.20;;;14.40;99.90;;;;;;5041202;28;20396;-81
2021/07/23 01:25:02;;;;;;;7.03;5.97;;;14.40;99.90;;;;;;5006965;28;20757;-81
2021/07/23 01:27:32;;;;;;;5.10;4.07;;;14.40;99.90;;;;;;5025258;28;20052;-82
2021/07/23 01:30:10;;;;;;;6.38;3.70;;;14.40;99.90;;;;;;5045424;28;20041;-82
2021/07/23 01:32:41;;;;;;;9.32;5.93;;;14.30;99.90;;;;;;5043919;28;20059;-81
2021/07/23 01:35:09;;;;;;;8.30;5.45;;;14.40;99.90;;;;;;5027579;28;20053;-81
2021/07/23 01:37:39;;;;;;;5.25;4.40;;;14.40;99.90;;;;;;5043756;28;20041;-82
2021/07/23 01:40:08;;;;;;;6.70;5.20;;;14.30;99.90;;;;;;5043112;28;20033;-79
2021/07/23 01:42:35;;;;;;;7.82;5.75;;;14.30;99.90;;;;;;5027138;28;20041;-79
2021/07/23 01:45:03;;;;;;;6.13;4.97;;;14.30;99.90;;;;;;5009456;28;20056;-79
2021/07/23 01:47:30;;;;;;;5.80;4.65;;;14.30;99.90;;;;;;5043676;28;20041;-79
2021/07/23 01:49:57;;;;;;;5.60;4.35;;;14.30;99.90;;;;;;5004632;28;20055;-79
2021/07/23 01:52:23;;;;;;;5.00;4.50;;;14.30;99.90;;;;;;5008185;28;20042;-79
2021/07/23 01:54:52;;;;;;;5.22;3.78;;;14.20;99.90;;;;;;5029576;28;20045;-80
2021/07/23 01:57:34;;;;;;;5.38;3.72;;;14.20;99.90;;;;;;5029531;28;20092;-79
2021/07/23 02:00:04;;;;;;;5.30;4.28;;;14.20;99.90;;;;;;4995831;28;20064;-79
2021/07/23 02:02:31;;;;;;;5.20;4.30;;;14.20;99.90;;;;;;5043661;28;20045;-79
2021/07/23 02:05:02;;;;;;;4.32;3.92;;;14.10;99.90;;;;;;5026341;28;20049;-79
2021/07/23 02:07:29;;;;;;;5.85;4.18;;;14.10;99.90;;;;;;5025347;28;20051;-79
2021/07/23 02:09:56;;;;;;;4.65;3.85;;;14.10;99.90;;;;;;5009164;28;20046;-79
2021/07/23 02:12:22;;;;;;;5.72;3.72;;;14.00;99.90;;;;;;4982382;28;20052;-79
2021/07/23 02:15:06;;;;;;;7.20;4.68;;;14.00;99.90;;;;;;5025641;28;20045;-79
2021/07/23 02:17:34;;;;;;;5.22;4.55;;;14.00;99.90;;;;;;5000190;28;20049;-79
2021/07/23 02:20:04;;;;;;;5.53;4.40;;;14.00;99.90;;;;;;5011363;28;20045;-80
2021/07/23 02:22:38;;;;;;;6.68;4.38;;;14.00;99.90;;;;;;5009492;28;20056;-79
2021/07/23 02:25:07;;;;;;;;;;;13.90;99.90;;;;;;5004959;28;20046;-79
2021/07/23 02:27:34;;;;;;;9.57;5.32;;;13.90;99.90;;;;;;5024733;28;19924;-79
2021/07/23 02:30:01;;;;;;;6.72;4.45;;;13.90;99.90;;;;;;5011224;28;20045;-79
2021/07/23 02:32:35;;;;;;;7.45;4.53;;;13.80;99.90;;;;;;5025572;28;20053;-79
2021/07/23 02:35:02;;;;;;;6.93;4.80;;;13.80;99.90;;;;;;5018587;28;20057;-79
2021/07/23 02:37:38;;;;;;;4.95;4.38;;;13.80;99.90;;;;;;5011869;28;20068;-79
2021/07/23 02:40:07;;;;;;;6.07;4.68;;;13.80;99.90;;;;;;5010336;28;20798;-79
2021/07/23 02:42:33;;;;;;;5.00;4.22;;;13.80;99.90;;;;;;5009061;28;20061;-79
2021/07/23 02:45:00;;;;;;;4.60;4.20;;;13.80;99.90;;;;;;5010570;28;20618;-79
2021/07/23 02:47:27;;;;;;;5.60;4.57;;;13.80;99.90;;;;;;5008310;28;20050;-79
2021/07/23 02:49:54;;;;;;;5.47;4.32;;;13.80;99.90;;;;;;5043753;28;20041;-79
2021/07/23 02:52:22;;;;;;;4.95;4.32;;;13.80;99.90;;;;;;5000957;28;20049;-79
2021/07/23 02:54:49;;;;;;;5.65;3.80;;;13.80;99.90;;;;;;5046942;28;20045;-80
2021/07/23 02:57:17;;;;;;;6.30;4.32;;;13.80;99.90;;;;;;5029618;28;20492;-79
2021/07/23 02:59:45;;;;;;;5.43;4.28;;;13.80;99.90;;;;;;5014373;28;20033;-79
2021/07/23 03:02:13;;;;;;;6.82;4.30;;;13.80;99.90;;;;;;5045094;28;20492;-79
2021/07/23 03:04:41;;;;;;;5.22;4.05;;;13.80;99.90;;;;;;4997037;28;20048;-79
2021/07/23 03:07:09;;;;;;;5.30;4.35;;;13.70;99.90;;;;;;4995200;28;20057;-78
2021/07/23 03:09:35;;;;;;;5.18;4.45;;;13.70;99.90;;;;;;5046861;28;20074;-78
2021/07/23 03:12:04;;;;;;;6.00;4.30;;;13.60;99.90;;;;;;5046396;28;20044;-78
2021/07/23 03:14:34;;;;;;;6.18;4.50;;;13.70;99.90;;;;;;5006368;28;20041;-78
2021/07/23 03:17:08;;;;;;;6.40;4.05;;;13.60;99.90;;;;;;5001090;28;20052;-78
2021/07/23 03:19:36;;;;;;;6.60;5.20;;;13.60;99.90;;;;;;5013590;28;20495;-78
2021/07/23 03:22:03;;;;;;;5.43;4.15;;;13.50;99.90;;;;;;5012935;28;20049;-78
2021/07/23 03:24:34;;;;;;;6.40;4.60;;;13.50;99.90;;;;;;5012685;28;20049;-78
2021/07/23 03:27:01;;;;;;;7.50;5.10;;;13.50;99.90;;;;;;5029477;28;20038;-78
2021/07/23 03:29:28;;;;;;;7.25;5.22;;;13.50;99.90;;;;;;5030328;28;20399;-78
2021/07/23 03:31:55;;;;;;;5.43;4.00;;;13.40;99.90;;;;;;5045678;28;20033;-78
2021/07/23 03:34:28;;;;;;;9.38;4.80;;;13.40;99.90;;;;;;4998978;28;20697;-78
2021/07/23 03:37:05;;;;;;;4.32;3.92;;;13.40;99.90;;;;;;4984573;28;20053;-77
2021/07/23 03:40:05;;;;;;;6.13;5.03;;;13.40;99.90;;;;;;5023117;28;20053;-80
2021/07/23 03:42:36;;;;;;;6.25;4.28;;;13.40;99.90;;;;;;5045649;28;20045;-81
2021/07/23 03:45:17;;;;;;;5.72;4.72;;;13.40;99.90;;;;;;5012057;28;20052;-80
2021/07/23 03:47:46;;;;;;;7.22;4.63;;;13.40;99.90;;;;;;5031176;28;20053;-81
2021/07/23 03:50:14;;;;;;;7.68;4.88;;;13.40;99.90;;;;;;4998350;28;20076;-80
2021/07/23 03:52:55;;;;;;;5.80;4.47;;;13.40;99.90;;;;;;5032179;28;20059;-81
2021/07/23 03:55:51;;;;;;;7.30;4.60;;;13.40;99.90;;;;;;5022835;28;20403;-81
2021/07/23 03:58:39;;;;;;;5.93;4.57;;;13.40;99.90;;;;;;5032838;28;20045;-81
2021/07/23 04:01:08;;;;;;;6.30;4.28;;;13.40;99.90;;;;;;5029496;28;20045;-81
2021/07/23 04:03:37;;;;;;;7.00;4.90;;;13.40;99.90;;;;;;5045708;28;20534;-80
2021/07/23 04:06:04;;;;;;;5.43;4.57;;;13.40;99.90;;;;;;5012487;28;20045;-80
2021/07/23 04:08:31;;;;;;;5.70;4.85;;;13.40;99.90;;;;;;5045701;28;20061;-80
2021/07/23 04:10:57;;;;;;;6.03;5.13;;;13.40;99.90;;;;;;5043743;28;20056;-80
2021/07/23 04:13:29;;;;;;;4.72;4.07;;;13.40;99.90;;;;;;5009335;28;20045;-80
2021/07/23 04:15:57;;;;;;;7.05;4.82;;;13.40;99.90;;;;;;5046021;28;20045;-80
2021/07/23 04:18:29;;;;;;;7.18;5.32;;;13.50;99.90;;;;;;5013975;28;20052;-80
2021/07/23 04:21:13;;;;;;;6.13;4.40;;;13.50;99.90;;;;;;5029352;28;20056;-80
2021/07/23 04:23:39;;;;;;;5.68;4.60;;;13.50;99.90;;;;;;5045560;28;20044;-81
2021/07/23 04:26:08;;;;;;;8.35;5.03;;;13.50;99.90;;;;;;5046209;28;20040;-81
2021/07/23 04:28:35;;;;;;;6.78;5.13;;;13.60;99.90;;;;;;5047555;28;20037;-81
2021/07/23 04:31:01;;;;;;;6.10;4.38;;;13.60;99.90;;;;;;5045856;28;20371;-80
2021/07/23 04:33:47;;;;;;;5.50;4.38;;;13.70;99.90;;;;;;5024860;28;20040;-81
2021/07/23 04:36:35;;;;;;;6.63;5.13;;;13.70;99.90;;;;;;5016809;28;20496;-81
2021/07/23 04:39:19;;;;;;;8.18;5.00;;;13.80;99.90;;;;;;5046198;28;20068;-81
2021/07/23 04:41:48;;;;;;;6.30;4.50;;;13.80;99.90;;;;;;5044081;28;20041;-80
2021/07/23 04:44:15;;;;;;;5.35;4.82;;;13.90;99.90;;;;;;5004400;28;20052;-80
2021/07/23 04:46:45;;;;;;;7.05;5.25;;;14.00;99.90;;;;;;5045444;28;20040;-80
2021/07/23 04:49:12;;;;;;;6.75;5.10;;;14.00;99.90;;;;;;4995920;28;20044;-81
2021/07/23 04:51:40;;;;;;;6.47;5.13;;;14.10;99.90;;;;;;5044885;28;20045;-80
2021/07/23 04:54:26;;;;;;;8.52;5.18;;;14.20;99.90;;;;;;5029864;28;20617;-81
2021/07/23 04:57:14;;;;;;;5.63;4.85;;;14.30;99.90;;;;;;5028002;28;20048;-81
2021/07/23 04:59:42;;;;;;;6.30;4.65;;;14.40;99.90;;;;;;5029276;28;20048;-80
2021/07/23 05:02:08;;;;;;;7.45;4.55;;;14.50;99.90;;;;;;5026903;28;20053;-80
2021/07/23 05:04:36;;;;;;;4.75;4.25;;;14.60;99.90;;;;;;5045057;28;20028;-81
2021/07/23 05:07:03;;;;;;;6.25;4.65;;;14.80;99.90;;;;;;5045425;28;20049;-80
2021/07/23 05:09:30;;;;;;;6.85;4.55;;;14.90;99.90;;;;;;5029341;28;20605;-81
2021/07/23 05:11:57;;;;;;;6.10;4.47;;;15.00;99.90;;;;;;5016597;28;20050;-80
2021/07/23 05:14:25;;;;;;;6.38;4.93;;;15.10;99.90;;;;;;5026572;28;20140;-80
2021/07/23 05:16:52;;;;;;;6.55;4.05;;;15.20;99.90;;;;;;5046392;28;20037;-81
2021/07/23 05:19:20;;;;;;;9.95;4.03;;;15.40;99.90;;;;;;5028293;28;20393;-81
2021/07/23 05:21:47;;;;;;;5.85;4.60;;;15.50;99.90;;;;;;5044717;28;20041;-81
2021/07/23 05:24:13;;;;;;;6.15;4.78;;;15.60;99.90;;;;;;5044995;28;20063;-80
2021/07/23 05:26:40;;;;;;;5.88;4.07;;;15.70;99.90;;;;;;5029490;28;20033;-80
2021/07/23 05:29:07;;;;;;;4.93;3.50;;;15.90;99.90;;;;;;4995134;28;20049;-86
2021/07/23 05:31:35;;;;;;;5.03;3.92;;;16.00;99.90;;;;;;4997288;28;20045;-80
2021/07/23 05:34:02;;;;;;;4.55;3.42;;;16.20;99.90;;;;;;5043641;28;20067;-78
2021/07/23 05:36:28;;;;;;;4.72;3.67;;;16.30;99.90;;;;;;5028172;28;20394;-78
2021/07/23 05:38:55;;;;;;;4.18;3.10;;;16.50;99.90;;;;;;5031716;28;20039;-78
2021/07/23 05:41:21;;;;;;;4.53;3.35;;;16.60;99.90;;;;;;5045277;28;20348;-80
2021/07/23 05:43:48;;;;;;;4.78;3.00;;;16.80;99.90;;;;;;5043021;28;20021;-78
2021/07/23 05:46:15;;;;;;;4.43;2.53;;;16.90;99.50;;;;;;5052688;28;20041;-79
2021/07/23 05:48:42;;;;;;;5.60;4.00;;;17.00;99.30;;;;;;5044399;28;20039;-79
2021/07/23 05:51:10;;;;;;;8.23;3.30;;;17.20;98.80;;;;;;5025244;28;20037;-78
2021/07/23 05:53:37;;;;;;;5.40;3.28;;;17.30;98.60;;;;;;5020248;28;20049;-78
2021/07/23 05:56:04;;;;;;;4.15;2.35;;;17.40;98.30;;;;;;5030846;28;20044;-78
2021/07/23 05:58:32;;;;;;;3.35;2.30;;;17.50;98.00;;;;;;5025670;28;20049;-76
2021/07/23 06:01:03;;;;;;;4.85;1.98;;;17.60;97.80;;;;;;5040198;28;20033;-78
2021/07/23 06:03:29;;;;;;;2.53;1.83;;;17.70;97.60;;;;;;5008542;28;20056;-78
2021/07/23 06:05:56;;;;;;;4.03;2.00;;;17.80;97.50;;;;;;5044510;28;20037;-78
2021/07/23 06:08:22;;;;;;;6.10;3.72;;;17.90;97.10;;;;;;5030395;28;20036;-78
2021/07/23 06:10:48;;;;;;;4.75;3.55;;;18.00;97.00;;;;;;5045550;28;20048;-78
2021/07/23 06:13:15;;;;;;;5.32;2.45;;;18.20;96.90;;;;;;5042323;28;20033;-78
2021/07/23 06:15:41;;;;;;;3.05;2.03;;;18.30;96.60;;;;;;5044682;28;20523;-78
2021/07/23 06:18:08;;;;;;;1.98;1.30;;;18.50;96.30;;;;;;5044224;28;20033;-78
2021/07/23 06:20:34;;;;;;;5.53;4.15;;;18.80;96.10;;;;;;5041755;28;20044;-79
2021/07/23 06:23:01;;;;;;;3.50;1.77;;;19.10;95.30;;;;;;5026063;28;20029;-78
2021/07/23 06:25:27;;;;;;;2.53;1.42;;;19.30;94.70;;;;;;5044412;28;20033;-79
2021/07/23 06:27:53;;;;;;;4.28;1.65;;;19.50;94.40;;;;;;5047384;28;20037;-79
2021/07/23 06:30:20;;;;;;;2.97;1.63;;;19.60;94.20;;;;;;5031536;28;20832;-80
2021/07/23 06:32:46;;;;;;;2.50;1.25;;;19.80;93.90;;;;;;5046141;28;20041;-82
2021/07/23 06:35:13;;;;;;;3.78;1.73;;;19.90;93.40;;;;;;5045732;28;20420;-78
2021/07/23 06:37:39;;;;;;;2.45;1.80;;;20.00;93.10;;;;;;5030201;28;20045;-78
2021/07/23 06:40:06;;;;;;;4.53;1.92;;;20.00;93.00;;;;;;5030996;28;20042;-78
2021/07/23 06:42:34;;;;;;;2.60;1.80;;;20.00;93.00;;;;;;5046376;28;20040;-78
2021/07/23 06:45:00;;;;;;;2.90;1.85;;;20.00;92.90;;;;;;5012019;28;20067;-77
2021/07/23 06:47:27;;;;;;;6.90;1.90;;;20.00;92.90;;;;;;5048986;28;20045;-77
2021/07/23 06:49:53;;;;;;;4.00;1.73;;;20.10;92.70;;;;;;5009508;28;20049;-77
2021/07/23 06:52:20;;;;;;;2.13;1.30;;;20.30;92.70;;;;;;4997102;28;20523;-77
2021/07/23 06:54:48;;;;;;;4.32;2.00;;;20.30;92.60;;;;;;5046957;28;20045;-77
2021/07/23 06:57:15;;;;;;;4.45;2.17;;;20.30;92.50;;;;;;5045391;28;20040;-77
2021/07/23 06:59:41;;;;;;;3.45;2.60;;;20.20;92.20;;;;;;5048904;28;20036;-77
2021/07/23 07:02:07;;;;;;;4.68;2.40;;;20.10;92.20;;;;;;5025368;28;20044;-77
2021/07/23 07:04:34;;;;;;;6.00;3.53;;;20.10;92.20;;;;;;5011788;28;20049;-78
2021/07/23 07:07:01;;;;;;;2.78;1.48;;;20.00;91.90;;;;;;5032132;28;20041;-78
2021/07/23 07:09:28;;;;;;;3.70;1.10;;;20.00;91.80;;;;;;5012137;28;20041;-77
2021/07/23 07:11:58;;;;;;;2.47;1.38;;;20.10;91.80;;;;;;5045448;28;20515;-77
2021/07/23 07:14:25;;;;;;;2.58;1.25;;;20.10;91.80;;;;;;5042048;28;20045;-77
2021/07/23 07:16:53;;;;;;;3.17;1.30;;;20.20;91.70;;;;;;5012591;28;20044;-77
2021/07/23 07:19:19;;;;;;;2.00;1.00;;;20.20;91.40;;;;;;5046825;28;20551;-79
2021/07/23 07:21:48;;;;;;;2.28;1.20;;;20.20;91.50;;;;;;5045304;28;20036;-77
2021/07/23 07:24:16;;;;;;;2.70;1.65;;;20.20;91.70;;;;;;5045907;28;21214;-77
2021/07/23 07:26:45;;;;;;;5.03;1.75;;;20.30;91.30;;;;;;5043526;28;20399;-77
2021/07/23 07:29:12;;;;;;;4.40;1.45;;;20.30;91.10;;;;;;5045529;28;20039;-77
2021/07/23 07:31:39;;;;;;;4.32;1.73;;;20.30;91.00;;;;;;5043780;28;20064;-77
2021/07/23 07:34:05;;;;;;;3.00;2.50;;;20.30;90.90;;;;;;5043479;28;20039;-77
2021/07/23 07:36:33;;;;;;;2.42;1.38;;;20.40;90.90;;;;;;5044625;28;20049;-77
2021/07/23 07:38:59;;;;;;;3.67;1.63;;;20.40;90.90;;;;;;5044901;28;20043;-78
2021/07/23 07:41:28;;;;;;;2.90;1.75;;;20.40;90.90;;;;;;5026776;28;20052;-77
2021/07/23 07:43:55;;;;;;;5.88;1.70;;;20.40;90.80;;;;;;5044677;28;20907;-78
2021/07/23 07:46:21;;;;;;;4.32;1.92;;;20.40;90.70;;;;;;5043905;28;20037;-77
2021/07/23 07:48:47;;;;;;;1.95;0.90;;;20.50;90.80;;;;;;5028181;28;20053;-78
2021/07/23 07:51:14;;;;;;;3.22;1.45;;;20.60;90.80;;;;;;5044885;28;20041;-78
2021/07/23 07:53:42;;;;;;;3.58;1.60;;;20.80;90.80;;;;;;5042664;28;20049;-78
2021/07/23 07:56:10;;;;;;;3.22;1.60;;;21.10;90.70;;;;;;5009848;28;20052;-78
2021/07/23 07:58:36;;;;;;;2.50;1.40;;;21.20;90.10;;;;;;5026083;28;20504;-78
2021/07/23 08:01:07;;;;;;;2.63;1.60;;;21.20;89.80;;;;;;5042769;28;20029;-78
2021/07/23 08:03:33;;;;;;;3.88;1.73;;;21.30;89.70;;;;;;5043572;28;20037;-78
2021/07/23 08:06:07;;;;;;;2.92;1.75;;;21.40;89.20;;;;;;5028262;28;20420;-78
2021/07/23 08:08:34;;;;;;;3.72;1.80;;;21.40;89.20;;;;;;5043964;28;20037;-78
2021/07/23 08:11:01;;;;;;;4.97;1.73;;;21.40;88.90;;;;;;5011896;28;20392;-78
2021/07/23 08:13:27;;;;;;;3.80;1.85;;;21.30;89.10;;;;;;5043325;28;20049;-78
2021/07/23 08:15:55;;;;;;;3.95;1.80;;;21.30;89.20;;;;;;5027465;28;20045;-78
2021/07/23 08:18:22;;;;;;;3.05;1.80;;;21.30;89.50;;;;;;5003479;28;20054;-78
2021/07/23 08:20:51;;;;;;;2.95;1.88;;;21.30;89.10;;;;;;5044691;28;20344;-77
2021/07/23 08:23:19;;;;;;;3.22;1.98;;;21.40;89.20;;;;;;5042953;28;20033;-77
2021/07/23 08:25:46;;;;;;;3.10;2.15;;;21.40;89.30;;;;;;5026283;28;20497;-79
2021/07/23 08:28:13;;;;;;;3.10;2.25;;;21.40;89.80;;;;;;5042517;28;20522;-76
2021/07/23 08:30:39;;;;;;;4.22;1.95;;;21.40;89.50;;;;;;5043767;28;20601;-78
2021/07/23 08:33:06;;;;;;;2.80;1.95;;;21.40;89.40;;;;;;5044214;28;20036;-80
2021/07/23 08:35:32;;;;;;;2.80;2.00;;;21.50;89.70;;;;;;5044255;28;20052;-79
2021/07/23 08:37:59;;;;;;;3.08;1.90;;;21.60;89.40;;;;;;5043564;28;20041;-81
2021/07/23 08:40:25;;;;;;;3.92;2.30;;;21.70;89.20;;;;;;5011423;28;20032;-79
2021/07/23 08:42:51;;;;;;;3.40;2.00;;;21.70;88.20;;;;;;5024842;28;20041;-80
2021/07/23 08:45:18;;;;;;;3.28;2.30;;;21.70;88.10;;;;;;5044792;28;20037;-79
2021/07/23 08:47:44;;;;;;;3.50;2.08;;;21.80;88.30;;;;;;5011661;28;20037;-79
2021/07/23 08:50:11;;;;;;;3.80;2.28;;;21.80;88.20;;;;;;4995261;28;20256;-81
2021/07/23 08:52:46;;;;;;;5.63;2.17;;;21.90;88.30;;;;;;5044471;28;20052;-83
2021/07/23 08:55:14;;;;;;;4.40;2.30;;;22.00;87.40;;;;;;5046116;28;20049;-82
2021/07/23 08:57:42;;;;;;;3.70;2.33;;;22.00;87.50;;;;;;5029164;28;20530;-83
2021/07/23 09:00:11;;;;;;;4.53;2.78;;;22.00;87.40;;;;;;5045748;28;20048;-84
2021/07/23 09:02:54;;;;;;;4.20;2.30;;;22.00;87.80;;;;;;5012153;28;20845;-89
2021/07/23 09:05:31;;;;;;;4.25;2.60;;;22.00;87.90;;;;;;5026684;28;20520;-87
2021/07/23 09:08:10;;;;;;;4.13;2.30;;;22.00;87.70;;;;;;5028499;28;20045;-82
2021/07/23 09:10:37;;;;;;;4.05;2.38;;;22.00;87.70;;;;;;5044241;28;20052;-83
2021/07/23 09:13:05;;;;;;;4.68;2.13;;;22.00;87.60;;;;;;5008168;28;20064;-83
2021/07/23 09:15:37;;;;;;;5.32;3.05;;;22.00;87.70;;;;;;5010408;28;20055;-83
2021/07/23 09:18:07;;;;;;;2.90;1.98;;;21.90;87.70;;;;;;5012201;28;20055;-81
2021/07/23 09:20:39;;;;;;;3.90;2.72;;;22.00;88.10;;;;;;5020970;28;20507;-81
2021/07/23 09:23:06;;;;;;;4.43;2.60;;;22.10;87.30;;;;;;5010921;28;20512;-79
2021/07/23 09:25:35;;;;;;;3.90;2.85;;;22.20;86.90;;;;;;5025110;28;20147;-78
2021/07/23 09:28:17;;;;;;;4.40;2.70;;;22.20;86.50;;;;;;4996052;28;20049;-77
2021/07/23 09:30:44;;;;;;;5.68;3.60;;;22.10;87.00;;;;;;5015500;28;20049;-77
2021/07/23 09:33:11;;;;;;;3.00;2.28;;;22.00;87.00;;;;;;5030450;28;20388;-76
2021/07/23 09:35:50;;;;;;;3.33;2.55;;;21.70;87.60;;;;;;5048630;28;20056;-83
2021/07/23 09:38:18;;;;;;;5.57;4.70;;;21.70;88.20;;;;;;5041151;28;20044;-82
2021/07/23 09:40:44;;;;;;;3.83;2.67;;;21.80;88.70;;;;;;5047622;28;20958;-82
2021/07/23 09:43:11;;;;;;;3.95;2.47;;;21.80;88.50;;;;;;5043080;28;20080;-85
2021/07/23 09:45:37;;;;;;;4.53;2.55;;;21.80;88.00;;;;;;5025790;28;20056;-85
2021/07/23 09:48:12;;;;;;;4.72;2.38;;;21.80;88.30;;;;;;5022962;28;20040;-87
2021/07/23 09:50:44;;;;;;;5.03;2.45;;;21.90;88.50;;;;;;5030365;28;20041;-86
2021/07/23 09:53:12;;;;;;;4.10;2.63;;;22.00;88.50;;;;;;5023320;28;20056;-86
2021/07/23 09:55:40;;;;;;;6.90;5.63;;;22.00;88.10;;;;;;5026632;28;20041;-82
2021/07/23 09:58:07;;;;;;;4.05;2.75;;;22.20;87.30;;;;;;5026301;28;20037;-83
2021/07/23 10:00:39;;;;;;;4.45;3.10;;;22.20;86.40;;;;;;5023031;28;20045;-83
2021/07/23 10:03:07;;;;;;;4.35;3.10;;;22.40;86.70;;;;;;5040886;28;20037;-79
2021/07/23 10:05:38;;;;;;;4.88;4.00;;;22.40;85.80;;;;;;5043846;28;20025;-79
2021/07/23 10:08:09;;;;;;;4.80;2.57;;;22.50;85.80;;;;;;5043426;28;20052;-82
2021/07/23 10:10:43;;;;;;;3.42;2.50;;;22.60;85.80;;;;;;5030122;28;20287;-81
2021/07/23 10:13:10;;;;;;;4.07;2.35;;;22.70;85.30;;;;;;5027967;28;20049;-83
2021/07/23 10:15:39;;;;;;;6.90;2.63;;;23.00;85.30;;;;;;5030324;28;20061;-84
2021/07/23 10:18:06;;;;;;;3.13;2.17;;;23.20;84.10;;;;;;5014589;28;20072;-78
2021/07/23 10:20:33;;;;;;;4.15;2.70;;;23.20;82.30;;;;;;5045275;28;20492;-81
2021/07/23 10:22:59;;;;;;;3.47;2.25;;;23.20;82.30;;;;;;5027058;28;20408;-82
2021/07/23 10:25:27;;;;;;;4.30;2.22;;;23.30;82.70;;;;;;5010230;28;20046;-81
2021/07/23 10:27:53;;;;;;;8.05;2.55;;;23.50;82.10;;;;;;5011417;28;20427;-80
2021/07/23 10:30:34;;;;;;;4.03;2.00;;;23.60;80.60;;;;;;5046041;28;20053;-81
2021/07/23 10:33:01;;;;;;;4.78;2.83;;;23.70;80.90;;;;;;5055472;28;20396;-81
2021/07/23 10:35:30;;;;;;;3.38;2.58;;;24.00;80.40;;;;;;5049966;28;20053;-81
2021/07/23 10:37:57;;;;;;;3.65;2.10;;;24.10;79.90;;;;;;5046021;28;20071;-81
2021/07/23 10:40:35;;;;;;;3.55;1.92;;;24.10;79.40;;;;;;5007513;28;20060;-81
2021/07/23 10:43:22;;;;;;;3.75;2.13;;;24.00;79.60;;;;;;5028306;28;20037;-81
2021/07/23 10:45:48;;;;;;;3.83;2.40;;;24.10;79.90;;;;;;5045827;28;20488;-81
2021/07/23 10:48:48;;;;;;;3.35;1.85;;;24.10;78.30;;;;;;5029469;28;20044;-80
2021/07/23 10:51:49;;;;;;;3.08;2.40;;;24.00;78.00;;;;;;5048519;28;20032;-81
2021/07/23 10:54:17;;;;;;;3.20;2.30;;;23.80;78.60;;;;;;5032902;28;20045;-80
2021/07/23 10:57:02;;;;;;;5.75;2.78;;;23.70;78.70;;;;;;5017419;28;20784;-81
2021/07/23 11:02:08;;;;;;;3.28;1.90;;;23.80;79.00;;;;;;5049391;28;20511;-82
2021/07/23 11:04:35;;;;;;;2.75;2.10;;;23.90;77.90;;;;;;5047286;28;20036;-81
2021/07/23 11:07:06;;;;;;;2.38;1.83;;;24.10;77.00;;;;;;5050010;28;20041;-83
2021/07/23 11:09:34;;;;;;;2.63;1.42;;;24.20;76.80;;;;;;5042136;28;20062;-80
2021/07/23 11:12:21;;;;;;;5.55;1.90;;;24.30;76.50;;;;;;5042687;28;20044;-80
2021/07/23 11:14:54;;;;;;;3.85;1.77;;;24.50;76.50;;;;;;5061910;28;20047;-80
2021/07/23 11:17:22;;;;;;;3.30;1.70;;;24.50;76.00;;;;;;5046189;28;20059;-81
2021/07/23 11:19:51;;;;;;;3.05;1.70;;;24.40;75.70;;;;;;5033028;28;20049;-81
2021/07/23 11:22:23;;;;;;;2.40;1.80;;;24.50;75.80;;;;;;5011655;28;20041;-80
2021/07/23 11:24:53;;;;;;;5.82;2.90;;;24.60;74.90;;;;;;5026775;28;20033;-80
2021/07/23 11:27:27;;;;;;;3.58;1.88;;;24.60;74.40;;;;;;5045481;28;20029;-80
2021/07/23 11:29:58;;;;;;;3.97;3.40;;;24.70;75.00;;;;;;5014200;28;20052;-80
2021/07/23 11:32:26;;;;;;;5.03;2.72;;;24.90;74.90;;;;;;5010409;28;20045;-81
2021/07/23 11:35:10;;;;;;;3.13;2.05;;;25.10;73.70;;;;;;5028389;28;20045;-81
2021/07/23 11:37:36;;;;;;;6.57;3.50;;;25.10;73.40;;;;;;5028691;28;20049;-81
2021/07/23 11:40:09;;;;;;;4.68;2.70;;;25.00;73.20;;;;;;5045456;28;20037;-81
2021/07/23 11:42:36;;;;;;;;;;;24.80;73.70;;;;;;5028599;28;20037;-81
2021/07/23 11:45:04;;;;;;;4.45;2.47;;;24.70;73.80;;;;;;5046668;28;19921;-81
2021/07/23 11:47:36;;;;;;;5.97;2.38;;;24.60;73.10;;;;;;5044444;28;21924;-81
2021/07/23 11:50:15;;;;;;;4.55;2.35;;;24.50;73.00;;;;;;5011870;28;20186;-80
2021/07/23 11:52:42;;;;;;;3.95;2.50;;;24.40;73.80;;;;;;5009845;28;20044;-81
2021/07/23 11:55:11;;;;;;;4.55;2.78;;;24.40;73.80;;;;;;5021074;28;20049;-81
2021/07/23 11:57:39;;;;;;;4.15;2.63;;;24.50;73.00;;;;;;5045161;28;20891;-81
2021/07/23 12:00:29;;;;;;;3.78;2.40;;;24.60;72.90;;;;;;5000707;28;20396;-81
2021/07/23 12:02:56;;;;;;;3.88;3.00;;;24.80;72.70;;;;;;5025550;28;20045;-81
2021/07/23 12:05:23;;;;;;;5.90;2.40;;;25.10;72.10;;;;;;5045310;28;20037;-80
2021/07/23 12:07:58;;;;;;;5.53;2.80;;;25.50;70.90;;;;;;5012817;28;20081;-81
2021/07/23 12:10:25;;;;;;;4.15;2.60;;;25.70;70.90;;;;;;5009821;28;20499;-80
2021/07/23 12:12:51;;;;;;;4.05;3.05;;;25.90;70.60;;;;;;5044604;28;20389;-81
2021/07/23 12:15:19;;;;;;;4.10;3.10;;;25.80;70.30;;;;;;5009650;28;20412;-80
2021/07/23 12:17:48;;;;;;;7.60;3.53;;;25.50;70.20;;;;;;5016044;28;20044;-81
2021/07/23 12:20:16;;;;;;;5.53;2.20;;;25.30;70.80;;;;;;5046113;28;20147;-81
2021/07/23 12:23:04;;;;;;;5.10;2.90;;;25.30;71.20;;;;;;5027983;28;20515;-81
2021/07/23 12:25:38;;;;;;;6.95;3.10;;;25.60;71.30;;;;;;5042553;28;20037;-81
2021/07/23 12:28:07;;;;;;;4.85;2.67;;;26.10;70.30;;;;;;5011757;28;20045;-81
2021/07/23 12:30:35;;;;;;;4.03;3.10;;;26.40;69.30;;;;;;5027881;28;20056;-80
2021/07/23 12:33:18;;;;;;;7.43;2.80;;;27.10;68.40;;;;;;5009233;28;20061;-80
2021/07/23 12:35:50;;;;;;;4.18;2.85;;;28.10;65.40;;;;;;5029011;28;20064;-80
2021/07/23 12:38:16;;;;;;;3.35;2.58;;;28.70;64.10;;;;;;5051144;28;20040;-80
2021/07/23 12:40:51;;;;;;;5.60;3.83;;;28.60;63.50;;;;;;5028526;28;20913;-79
2021/07/23 12:43:19;;;;;;;7.53;4.07;;;28.40;62.90;;;;;;5040710;28;20380;-81
2021/07/23 12:45:46;;;;;;;4.47;3.25;;;28.00;63.00;;;;;;5026956;28;20029;-80
2021/07/23 12:48:18;;;;;;;4.72;3.25;;;27.80;63.30;;;;;;5021241;28;20044;-80
2021/07/23 12:50:45;;;;;;;7.43;3.22;;;28.30;63.20;;;;;;5025898;28;20050;-81
2021/07/23 12:53:25;;;;;;;5.93;3.45;;;29.30;61.80;;;;;;4995569;28;20400;-81
2021/07/23 12:55:59;;;;;;;5.60;3.15;;;30.00;58.70;;;;;;5026058;28;20056;-81
2021/07/23 12:58:46;;;;;;;3.00;2.67;;;30.50;56.80;;;;;;5043936;28;20507;-79
2021/07/23 13:01:14;;;;;;;3.97;2.65;;;31.00;55.80;;;;;;5040233;28;20051;-79
2021/07/23 13:03:41;;;;;;;5.07;2.78;;;31.00;55.10;;;;;;5041214;28;20031;-79